sensor_id;sensor_type;location;lat;lon;timestamp;temperature;humidity
15072;DHT22;7635;56.696;13.002;2023-05-10T00:00:40;9.10;99.90
15072;DHT22;7635;56.696;13.002;2023-05-10T00:03:07;9.20;99.90
15072;DHT22;7635;56.696;13.002;2023-05-10T00:05:34;9.20;99.90
15072;DHT22;7635;56.696;13.002;2023-05-10T00:08:02;9.30;99.90
15072;DHT22;7635;56.696;13.002;2023-05-10T00:10:29;9.30;99.90
15072;DHT22;7635;56.696;13.002;2023-05-10T00:12:55;9.40;99.90
15072;DHT22;7635;56.696;13.002;2023-05-10T00:15:22;9.40;99.90
15072;DHT22;7635;56.696;13.002;2023-05-10T00:17:49;9.40;99.90
15072;DHT22;7635;56.696;13.002;2023-05-10T00:20:16;9.40;99.90
15072;DHT22;7635;56.696;13.002;2023-05-10T00:22:42;9.40;99.90
15072;DHT22;7635;56.696;13.002;2023-05-10T00:25:10;9.40;99.90
15072;DHT22;7635;56.696;13.002;2023-05-10T00:27:37;9.30;99.90
15072;DHT22;7635;56.696;13.002;2023-05-10T00:30:05;9.30;99.90
15072;DHT22;7635;56.696;13.002;2023-05-10T00:32:32;9.30;99.90
15072;DHT22;7635;56.696;13.002;2023-05-10T00:34:59;9.20;99.90
15072;DHT22;7635;56.696;13.002;2023-05-10T00:37:25;9.20;99.90
15072;DHT22;7635;56.696;13.002;2023-05-10T00:39:52;9.10;99.90
15072;DHT22;7635;56.696;13.002;2023-05-10T00:42:20;9.10;99.90
15072;DHT22;7635;56.696;13.002;2023-05-10T00:44:47;9.10;99.90
15072;DHT22;7635;56.696;13.002;2023-05-10T00:47:15;9.10;99.90
15072;DHT22;7635;56.696;13.002;2023-05-10T00:49:42;9.10;99.90
15072;DHT22;7635;56.696;13.002;2023-05-10T00:52:10;9.10;99.90
15072;DHT22;7635;56.696;13.002;2023-05-10T00:54:36;9.20;99.90
15072;DHT22;7635;56.696;13.002;2023-05-10T00:57:03;9.20;99.90
15072;DHT22;7635;56.696;13.002;2023-05-10T00:59:32;9.20;99.90
15072;DHT22;7635;56.696;13.002;2023-05-10T01:01:58;9.20;99.90
15072;DHT22;7635;56.696;13.002;2023-05-10T01:04:25;9.20;99.90
15072;DHT22;7635;56.696;13.002;2023-05-10T01:06:53;9.30;99.90
15072;DHT22;7635;56.696;13.002;2023-05-10T01:09:20;9.30;99.90
15072;DHT22;7635;56.696;13.002;2023-05-10T01:11:47;9.20;99.90
15072;DHT22;7635;56.696;13.002;2023-05-10T01:14:15;9.20;99.90
15072;DHT22;7635;56.696;13.002;2023-05-10T01:16:47;9.20;99.90
15072;DHT22;7635;56.696;13.002;2023-05-10T01:19:19;9.20;99.90
15072;DHT22;7635;56.696;13.002;2023-05-10T01:21:53;9.10;99.90
15072;DHT22;7635;56.696;13.002;2023-05-10T01:24:46;9.10;99.90
15072;DHT22;7635;56.696;13.002;2023-05-10T01:27:20;9.20;99.90
15072;DHT22;7635;56.696;13.002;2023-05-10T01:30:16;9.20;99.90
15072;DHT22;7635;56.696;13.002;2023-05-10T01:32:52;9.20;99.90
15072;DHT22;7635;56.696;13.002;2023-05-10T01:35:29;9.20;99.90
15072;DHT22;7635;56.696;13.002;2023-05-10T01:38:04;9.20;99.90
15072;DHT22;7635;56.696;13.002;2023-05-10T01:40:36;9.20;99.90
15072;DHT22;7635;56.696;13.002;2023-05-10T01:43:08;9.20;99.90
15072;DHT22;7635;56.696;13.002;2023-05-10T01:45:41;9.10;99.90
15072;DHT22;7635;56.696;13.002;2023-05-10T01:48:12;9.10;99.90
15072;DHT22;7635;56.696;13.002;2023-05-10T01:50:43;9.20;99.90
15072;DHT22;7635;56.696;13.002;2023-05-10T01:53:12;9.20;99.90
15072;DHT22;7635;56.696;13.002;2023-05-10T01:55:44;9.20;99.90
15072;DHT22;7635;56.696;13.002;2023-05-10T01:58:17;9.10;99.90
15072;DHT22;7635;56.696;13.002;2023-05-10T02:00:47;9.10;99.90
15072;DHT22;7635;56.696;13.002;2023-05-10T02:03:18;9.10;99.90
15072;DHT22;7635;56.696;13.002;2023-05-10T02:05:48;9.10;99.90
15072;DHT22;7635;56.696;13.002;2023-05-10T02:08:16;9.10;99.90
15072;DHT22;7635;56.696;13.002;2023-05-10T02:10:45;9.10;99.90
15072;DHT22;7635;56.696;13.002;2023-05-10T02:13:12;9.00;99.90
15072;DHT22;7635;56.696;13.002;2023-05-10T02:15:40;9.00;99.90
15072;DHT22;7635;56.696;13.002;2023-05-10T02:18:09;8.90;99.90
15072;DHT22;7635;56.696;13.002;2023-05-10T02:20:39;8.80;99.90
15072;DHT22;7635;56.696;13.002;2023-05-10T02:23:06;8.80;99.90
15072;DHT22;7635;56.696;13.002;2023-05-10T02:25:34;8.80;99.90
15072;DHT22;7635;56.696;13.002;2023-05-10T02:28:04;8.70;99.90
15072;DHT22;7635;56.696;13.002;2023-05-10T02:30:32;8.70;99.90
15072;DHT22;7635;56.696;13.002;2023-05-10T02:33:00;8.70;99.90
15072;DHT22;7635;56.696;13.002;2023-05-10T02:35:27;8.70;99.90
15072;DHT22;7635;56.696;13.002;2023-05-10T02:37:56;8.70;99.90
15072;DHT22;7635;56.696;13.002;2023-05-10T02:40:26;8.70;99.90
15072;DHT22;7635;56.696;13.002;2023-05-10T02:42:56;8.60;99.90
15072;DHT22;7635;56.696;13.002;2023-05-10T02:45:28;8.60;99.90
15072;DHT22;7635;56.696;13.002;2023-05-10T02:47:55;8.60;99.90
15072;DHT22;7635;56.696;13.002;2023-05-10T02:50:26;8.60;99.90
15072;DHT22;7635;56.696;13.002;2023-05-10T02:52:59;8.60;99.90
15072;DHT22;7635;56.696;13.002;2023-05-10T02:55:32;8.60;99.90
15072;DHT22;7635;56.696;13.002;2023-05-10T02:58:00;8.60;99.90
15072;DHT22;7635;56.696;13.002;2023-05-10T03:00:27;8.70;99.90
15072;DHT22;7635;56.696;13.002;2023-05-10T03:02:54;8.70;99.90
15072;DHT22;7635;56.696;13.002;2023-05-10T03:05:21;8.70;99.90
15072;DHT22;7635;56.696;13.002;2023-05-10T03:07:48;8.70;99.90
15072;DHT22;7635;56.696;13.002;2023-05-10T03:10:16;8.70;99.90
15072;DHT22;7635;56.696;13.002;2023-05-10T03:12:55;8.70;99.90
15072;DHT22;7635;56.696;13.002;2023-05-10T03:15:31;8.80;99.90
15072;DHT22;7635;56.696;13.002;2023-05-10T03:18:04;8.80;99.90
15072;DHT22;7635;56.696;13.002;2023-05-10T03:20:36;8.80;99.90
15072;DHT22;7635;56.696;13.002;2023-05-10T03:23:07;8.80;99.90
15072;DHT22;7635;56.696;13.002;2023-05-10T03:25:35;8.80;99.90
15072;DHT22;7635;56.696;13.002;2023-05-10T03:28:04;8.90;99.90
15072;DHT22;7635;56.696;13.002;2023-05-10T03:30:31;8.90;99.90
15072;DHT22;7635;56.696;13.002;2023-05-10T03:33:04;8.90;99.90
15072;DHT22;7635;56.696;13.002;2023-05-10T03:35:31;8.90;99.90
15072;DHT22;7635;56.696;13.002;2023-05-10T03:37:58;8.90;99.90
15072;DHT22;7635;56.696;13.002;2023-05-10T03:40:25;8.90;99.90
15072;DHT22;7635;56.696;13.002;2023-05-10T03:42:55;8.90;99.90
15072;DHT22;7635;56.696;13.002;2023-05-10T03:45:22;9.00;99.90
15072;DHT22;7635;56.696;13.002;2023-05-10T03:47:48;9.00;99.90
15072;DHT22;7635;56.696;13.002;2023-05-10T03:50:15;9.00;99.90
15072;DHT22;7635;56.696;13.002;2023-05-10T03:52:42;9.00;99.90
15072;DHT22;7635;56.696;13.002;2023-05-10T03:55:10;9.00;99.90
15072;DHT22;7635;56.696;13.002;2023-05-10T03:57:37;9.00;99.90
15072;DHT22;7635;56.696;13.002;2023-05-10T04:00:06;9.00;99.90
15072;DHT22;7635;56.696;13.002;2023-05-10T04:02:33;9.10;99.90
15072;DHT22;7635;56.696;13.002;2023-05-10T04:05:00;9.10;99.90
15072;DHT22;7635;56.696;13.002;2023-05-10T04:07:26;9.10;99.90
15072;DHT22;7635;56.696;13.002;2023-05-10T04:09:53;9.20;99.90
15072;DHT22;7635;56.696;13.002;2023-05-10T04:12:20;9.20;99.90
15072;DHT22;7635;56.696;13.002;2023-05-10T04:14:47;9.20;99.90
15072;DHT22;7635;56.696;13.002;2023-05-10T04:17:15;9.20;99.90
15072;DHT22;7635;56.696;13.002;2023-05-10T04:19:41;9.30;99.90
15072;DHT22;7635;56.696;13.002;2023-05-10T04:22:08;9.30;99.90
15072;DHT22;7635;56.696;13.002;2023-05-10T04:24:35;9.40;99.90
15072;DHT22;7635;56.696;13.002;2023-05-10T04:27:01;9.40;99.90
15072;DHT22;7635;56.696;13.002;2023-05-10T04:29:28;9.40;99.90
15072;DHT22;7635;56.696;13.002;2023-05-10T04:31:55;9.50;99.90
15072;DHT22;7635;56.696;13.002;2023-05-10T04:34:23;9.50;99.90
15072;DHT22;7635;56.696;13.002;2023-05-10T04:36:49;9.60;99.90
15072;DHT22;7635;56.696;13.002;2023-05-10T04:39:16;9.60;99.90
15072;DHT22;7635;56.696;13.002;2023-05-10T04:41:43;9.70;99.90
15072;DHT22;7635;56.696;13.002;2023-05-10T04:44:10;9.80;99.90
15072;DHT22;7635;56.696;13.002;2023-05-10T04:46:37;9.80;99.90
15072;DHT22;7635;56.696;13.002;2023-05-10T04:49:03;9.90;99.90
15072;DHT22;7635;56.696;13.002;2023-05-10T04:51:31;9.90;99.90
15072;DHT22;7635;56.696;13.002;2023-05-10T04:53:58;10.00;99.90
15072;DHT22;7635;56.696;13.002;2023-05-10T04:56:25;10.00;99.90
15072;DHT22;7635;56.696;13.002;2023-05-10T04:58:51;10.10;99.90
15072;DHT22;7635;56.696;13.002;2023-05-10T05:01:18;10.20;99.90
15072;DHT22;7635;56.696;13.002;2023-05-10T05:03:45;10.30;99.90
15072;DHT22;7635;56.696;13.002;2023-05-10T05:06:11;10.30;99.90
15072;DHT22;7635;56.696;13.002;2023-05-10T05:08:39;10.40;99.90
15072;DHT22;7635;56.696;13.002;2023-05-10T05:11:06;10.50;99.90
15072;DHT22;7635;56.696;13.002;2023-05-10T05:13:33;10.60;99.90
15072;DHT22;7635;56.696;13.002;2023-05-10T05:16:00;10.80;99.90
15072;DHT22;7635;56.696;13.002;2023-05-10T05:18:27;10.80;99.90
15072;DHT22;7635;56.696;13.002;2023-05-10T05:20:54;11.00;99.90
15072;DHT22;7635;56.696;13.002;2023-05-10T05:23:21;11.10;99.90
15072;DHT22;7635;56.696;13.002;2023-05-10T05:25:51;11.20;99.90
15072;DHT22;7635;56.696;13.002;2023-05-10T05:28:18;11.40;99.90
15072;DHT22;7635;56.696;13.002;2023-05-10T05:30:45;11.60;99.90
15072;DHT22;7635;56.696;13.002;2023-05-10T05:33:13;11.90;99.90
15072;DHT22;7635;56.696;13.002;2023-05-10T05:35:40;12.10;99.90
15072;DHT22;7635;56.696;13.002;2023-05-10T05:38:08;12.40;99.90
15072;DHT22;7635;56.696;13.002;2023-05-10T05:40:35;12.70;99.90
15072;DHT22;7635;56.696;13.002;2023-05-10T05:43:03;13.00;99.90
15072;DHT22;7635;56.696;13.002;2023-05-10T05:45:29;13.20;99.90
15072;DHT22;7635;56.696;13.002;2023-05-10T05:47:56;13.40;99.90
15072;DHT22;7635;56.696;13.002;2023-05-10T05:50:23;13.60;99.90
15072;DHT22;7635;56.696;13.002;2023-05-10T05:52:49;13.70;99.90
15072;DHT22;7635;56.696;13.002;2023-05-10T05:55:16;13.90;99.90
15072;DHT22;7635;56.696;13.002;2023-05-10T05:57:43;14.20;99.90
15072;DHT22;7635;56.696;13.002;2023-05-10T06:00:12;14.40;99.90
15072;DHT22;7635;56.696;13.002;2023-05-10T06:02:39;14.50;99.90
15072;DHT22;7635;56.696;13.002;2023-05-10T06:05:07;14.60;99.90
15072;DHT22;7635;56.696;13.002;2023-05-10T06:07:34;14.70;99.90
15072;DHT22;7635;56.696;13.002;2023-05-10T06:10:01;14.80;99.90
15072;DHT22;7635;56.696;13.002;2023-05-10T06:12:28;15.10;99.90
15072;DHT22;7635;56.696;13.002;2023-05-10T06:14:55;15.40;99.90
15072;DHT22;7635;56.696;13.002;2023-05-10T06:17:23;15.60;99.90
15072;DHT22;7635;56.696;13.002;2023-05-10T06:19:50;15.70;99.90
15072;DHT22;7635;56.696;13.002;2023-05-10T06:22:17;15.80;99.90
15072;DHT22;7635;56.696;13.002;2023-05-10T06:24:43;15.80;99.90
15072;DHT22;7635;56.696;13.002;2023-05-10T06:27:10;16.00;99.90
15072;DHT22;7635;56.696;13.002;2023-05-10T06:29:37;16.10;99.90
15072;DHT22;7635;56.696;13.002;2023-05-10T06:32:04;16.30;99.90
15072;DHT22;7635;56.696;13.002;2023-05-10T06:34:32;16.30;99.90
15072;DHT22;7635;56.696;13.002;2023-05-10T06:36:59;16.50;99.90
15072;DHT22;7635;56.696;13.002;2023-05-10T06:39:25;16.70;99.90
15072;DHT22;7635;56.696;13.002;2023-05-10T06:41:52;16.70;99.90
15072;DHT22;7635;56.696;13.002;2023-05-10T06:44:19;17.00;99.90
15072;DHT22;7635;56.696;13.002;2023-05-10T06:46:46;17.20;99.90
15072;DHT22;7635;56.696;13.002;2023-05-10T06:49:13;17.40;99.90
15072;DHT22;7635;56.696;13.002;2023-05-10T06:51:41;17.50;99.90
15072;DHT22;7635;56.696;13.002;2023-05-10T06:54:08;17.70;99.90
15072;DHT22;7635;56.696;13.002;2023-05-10T06:56:34;17.90;99.90
15072;DHT22;7635;56.696;13.002;2023-05-10T06:59:01;17.90;99.90
15072;DHT22;7635;56.696;13.002;2023-05-10T07:01:28;17.90;99.90
15072;DHT22;7635;56.696;13.002;2023-05-10T07:03:54;18.00;99.90
15072;DHT22;7635;56.696;13.002;2023-05-10T07:06:21;18.10;99.90
15072;DHT22;7635;56.696;13.002;2023-05-10T07:08:49;18.20;99.90
15072;DHT22;7635;56.696;13.002;2023-05-10T07:11:16;18.40;99.90
15072;DHT22;7635;56.696;13.002;2023-05-10T07:13:42;18.40;99.90
15072;DHT22;7635;56.696;13.002;2023-05-10T07:16:11;18.40;99.90
15072;DHT22;7635;56.696;13.002;2023-05-10T07:18:38;18.60;99.90
15072;DHT22;7635;56.696;13.002;2023-05-10T07:21:05;18.50;99.90
15072;DHT22;7635;56.696;13.002;2023-05-10T07:23:32;18.60;99.90
15072;DHT22;7635;56.696;13.002;2023-05-10T07:26:00;18.70;99.90
15072;DHT22;7635;56.696;13.002;2023-05-10T07:28:27;18.70;99.90
15072;DHT22;7635;56.696;13.002;2023-05-10T07:30:54;19.10;99.90
15072;DHT22;7635;56.696;13.002;2023-05-10T07:33:21;19.40;99.90
15072;DHT22;7635;56.696;13.002;2023-05-10T07:35:47;19.60;99.90
15072;DHT22;7635;56.696;13.002;2023-05-10T07:38:14;19.70;99.80
15072;DHT22;7635;56.696;13.002;2023-05-10T07:40:41;19.80;99.80
15072;DHT22;7635;56.696;13.002;2023-05-10T07:43:09;19.80;99.80
15072;DHT22;7635;56.696;13.002;2023-05-10T07:45:35;19.50;99.20
15072;DHT22;7635;56.696;13.002;2023-05-10T07:48:02;19.70;99.60
15072;DHT22;7635;56.696;13.002;2023-05-10T07:50:29;19.80;99.80
15072;DHT22;7635;56.696;13.002;2023-05-10T07:52:56;20.20;99.40
15072;DHT22;7635;56.696;13.002;2023-05-10T07:55:22;20.30;99.30
15072;DHT22;7635;56.696;13.002;2023-05-10T07:57:49;20.40;98.50
15072;DHT22;7635;56.696;13.002;2023-05-10T08:00:19;20.50;98.50
15072;DHT22;7635;56.696;13.002;2023-05-10T08:02:46;20.50;98.10
15072;DHT22;7635;56.696;13.002;2023-05-10T08:05:13;20.50;97.90
15072;DHT22;7635;56.696;13.002;2023-05-10T08:07:40;20.70;98.50
15072;DHT22;7635;56.696;13.002;2023-05-10T08:10:08;21.00;98.50
15072;DHT22;7635;56.696;13.002;2023-05-10T08:12:36;20.90;97.50
15072;DHT22;7635;56.696;13.002;2023-05-10T08:15:03;20.90;97.70
15072;DHT22;7635;56.696;13.002;2023-05-10T08:17:32;21.10;97.70
15072;DHT22;7635;56.696;13.002;2023-05-10T08:19:58;21.20;97.80
15072;DHT22;7635;56.696;13.002;2023-05-10T08:22:25;21.40;98.00
15072;DHT22;7635;56.696;13.002;2023-05-10T08:24:52;21.70;97.10
15072;DHT22;7635;56.696;13.002;2023-05-10T08:27:18;21.70;96.50
15072;DHT22;7635;56.696;13.002;2023-05-10T08:29:45;21.50;96.30
15072;DHT22;7635;56.696;13.002;2023-05-10T08:32:12;21.40;96.20
15072;DHT22;7635;56.696;13.002;2023-05-10T08:34:40;21.50;96.70
15072;DHT22;7635;56.696;13.002;2023-05-10T08:37:07;21.50;96.00
15072;DHT22;7635;56.696;13.002;2023-05-10T08:39:34;21.50;95.40
15072;DHT22;7635;56.696;13.002;2023-05-10T08:42:03;21.60;96.20
15072;DHT22;7635;56.696;13.002;2023-05-10T08:44:32;21.50;95.40
15072;DHT22;7635;56.696;13.002;2023-05-10T08:47:02;21.40;96.00
15072;DHT22;7635;56.696;13.002;2023-05-10T08:49:31;21.40;96.00
15072;DHT22;7635;56.696;13.002;2023-05-10T08:52:03;21.50;95.70
15072;DHT22;7635;56.696;13.002;2023-05-10T08:54:31;21.60;94.70
15072;DHT22;7635;56.696;13.002;2023-05-10T08:56:58;21.40;95.00
15072;DHT22;7635;56.696;13.002;2023-05-10T08:59:25;21.40;95.40
15072;DHT22;7635;56.696;13.002;2023-05-10T09:01:52;21.40;95.20
15072;DHT22;7635;56.696;13.002;2023-05-10T09:04:21;21.60;95.10
15072;DHT22;7635;56.696;13.002;2023-05-10T09:06:47;21.90;95.40
15072;DHT22;7635;56.696;13.002;2023-05-10T09:09:17;22.20;95.70
15072;DHT22;7635;56.696;13.002;2023-05-10T09:11:44;22.10;94.90
15072;DHT22;7635;56.696;13.002;2023-05-10T09:14:12;22.20;95.20
15072;DHT22;7635;56.696;13.002;2023-05-10T09:16:40;22.40;94.50
15072;DHT22;7635;56.696;13.002;2023-05-10T09:19:07;22.10;94.30
15072;DHT22;7635;56.696;13.002;2023-05-10T09:21:35;22.00;93.70
15072;DHT22;7635;56.696;13.002;2023-05-10T09:24:03;21.90;93.70
15072;DHT22;7635;56.696;13.002;2023-05-10T09:26:32;21.90;94.30
15072;DHT22;7635;56.696;13.002;2023-05-10T09:29:01;21.80;94.60
15072;DHT22;7635;56.696;13.002;2023-05-10T09:31:47;21.90;94.40
15072;DHT22;7635;56.696;13.002;2023-05-10T09:34:17;22.00;94.30
15072;DHT22;7635;56.696;13.002;2023-05-10T09:36:54;22.20;94.10
15072;DHT22;7635;56.696;13.002;2023-05-10T09:39:30;22.20;93.70
15072;DHT22;7635;56.696;13.002;2023-05-10T09:42:01;22.20;93.80
15072;DHT22;7635;56.696;13.002;2023-05-10T09:44:29;21.90;92.90
15072;DHT22;7635;56.696;13.002;2023-05-10T09:46:55;21.80;93.30
15072;DHT22;7635;56.696;13.002;2023-05-10T09:49:22;21.70;93.60
15072;DHT22;7635;56.696;13.002;2023-05-10T09:52:00;21.80;93.50
15072;DHT22;7635;56.696;13.002;2023-05-10T09:54:27;22.10;93.60
15072;DHT22;7635;56.696;13.002;2023-05-10T09:56:53;22.30;93.30
15072;DHT22;7635;56.696;13.002;2023-05-10T09:59:22;22.90;94.10
15072;DHT22;7635;56.696;13.002;2023-05-10T10:01:51;23.20;93.70
15072;DHT22;7635;56.696;13.002;2023-05-10T10:04:20;22.90;92.60
15072;DHT22;7635;56.696;13.002;2023-05-10T10:06:47;22.90;92.80
15072;DHT22;7635;56.696;13.002;2023-05-10T10:09:24;22.90;92.80
15072;DHT22;7635;56.696;13.002;2023-05-10T10:11:51;22.90;92.30
15072;DHT22;7635;56.696;13.002;2023-05-10T10:14:19;23.00;92.80
15072;DHT22;7635;56.696;13.002;2023-05-10T10:16:48;23.00;92.10
15072;DHT22;7635;56.696;13.002;2023-05-10T10:19:15;22.70;91.40
15072;DHT22;7635;56.696;13.002;2023-05-10T10:21:42;22.80;91.70
15072;DHT22;7635;56.696;13.002;2023-05-10T10:24:08;22.80;91.60
15072;DHT22;7635;56.696;13.002;2023-05-10T10:26:36;22.90;91.70
15072;DHT22;7635;56.696;13.002;2023-05-10T10:29:14;22.60;91.00
15072;DHT22;7635;56.696;13.002;2023-05-10T10:31:48;22.50;91.20
15072;DHT22;7635;56.696;13.002;2023-05-10T10:34:25;22.60;91.80
15072;DHT22;7635;56.696;13.002;2023-05-10T10:36:54;22.60;91.10
15072;DHT22;7635;56.696;13.002;2023-05-10T10:39:21;22.50;91.30
15072;DHT22;7635;56.696;13.002;2023-05-10T10:41:51;22.70;92.30
15072;DHT22;7635;56.696;13.002;2023-05-10T10:44:39;22.90;91.00
15072;DHT22;7635;56.696;13.002;2023-05-10T10:47:23;22.60;91.40
15072;DHT22;7635;56.696;13.002;2023-05-10T10:50:04;22.90;91.50
15072;DHT22;7635;56.696;13.002;2023-05-10T10:52:32;23.00;90.80
15072;DHT22;7635;56.696;13.002;2023-05-10T10:55:02;23.00;90.60
15072;DHT22;7635;56.696;13.002;2023-05-10T10:57:32;22.70;90.70
15072;DHT22;7635;56.696;13.002;2023-05-10T11:00:21;22.80;90.00
15072;DHT22;7635;56.696;13.002;2023-05-10T11:02:51;22.60;90.60
15072;DHT22;7635;56.696;13.002;2023-05-10T11:05:39;22.50;90.40
15072;DHT22;7635;56.696;13.002;2023-05-10T11:08:12;22.40;89.80
15072;DHT22;7635;56.696;13.002;2023-05-10T11:10:39;22.40;90.90
15072;DHT22;7635;56.696;13.002;2023-05-10T11:13:07;22.50;90.70
15072;DHT22;7635;56.696;13.002;2023-05-10T11:15:35;22.40;90.10
15072;DHT22;7635;56.696;13.002;2023-05-10T11:18:19;22.40;90.90
15072;DHT22;7635;56.696;13.002;2023-05-10T11:20:50;22.40;91.00
15072;DHT22;7635;56.696;13.002;2023-05-10T11:23:17;22.30;91.20
15072;DHT22;7635;56.696;13.002;2023-05-10T11:25:45;22.30;91.50
15072;DHT22;7635;56.696;13.002;2023-05-10T11:28:12;22.60;91.80
15072;DHT22;7635;56.696;13.002;2023-05-10T11:30:41;22.40;91.80
15072;DHT22;7635;56.696;13.002;2023-05-10T11:33:08;22.30;91.20
15072;DHT22;7635;56.696;13.002;2023-05-10T11:35:40;22.30;91.10
15072;DHT22;7635;56.696;13.002;2023-05-10T11:38:07;22.20;91.60
15072;DHT22;7635;56.696;13.002;2023-05-10T11:40:34;22.20;90.90
15072;DHT22;7635;56.696;13.002;2023-05-10T11:43:01;22.20;91.30
15072;DHT22;7635;56.696;13.002;2023-05-10T11:45:28;22.10;90.90
15072;DHT22;7635;56.696;13.002;2023-05-10T11:47:57;22.10;91.60
15072;DHT22;7635;56.696;13.002;2023-05-10T11:50:24;22.10;91.30
15072;DHT22;7635;56.696;13.002;2023-05-10T11:52:53;22.10;91.10
15072;DHT22;7635;56.696;13.002;2023-05-10T11:55:20;22.00;91.30
15072;DHT22;7635;56.696;13.002;2023-05-10T11:57:48;21.90;91.70
15072;DHT22;7635;56.696;13.002;2023-05-10T12:00:17;21.60;92.30
15072;DHT22;7635;56.696;13.002;2023-05-10T12:02:44;21.50;92.00
15072;DHT22;7635;56.696;13.002;2023-05-10T12:05:11;21.50;92.10
15072;DHT22;7635;56.696;13.002;2023-05-10T12:07:38;21.50;92.00
15072;DHT22;7635;56.696;13.002;2023-05-10T12:10:10;21.20;91.60
15072;DHT22;7635;56.696;13.002;2023-05-10T12:12:40;21.10;92.50
15072;DHT22;7635;56.696;13.002;2023-05-10T12:15:11;21.20;92.10
15072;DHT22;7635;56.696;13.002;2023-05-10T12:17:38;21.10;92.20
15072;DHT22;7635;56.696;13.002;2023-05-10T12:20:16;21.10;92.60
15072;DHT22;7635;56.696;13.002;2023-05-10T12:22:50;21.20;92.60
15072;DHT22;7635;56.696;13.002;2023-05-10T12:25:20;21.10;92.10
15072;DHT22;7635;56.696;13.002;2023-05-10T12:27:49;21.10;93.10
15072;DHT22;7635;56.696;13.002;2023-05-10T12:30:21;21.00;92.80
15072;DHT22;7635;56.696;13.002;2023-05-10T12:32:48;20.90;92.50
15072;DHT22;7635;56.696;13.002;2023-05-10T12:35:15;21.10;93.10
15072;DHT22;7635;56.696;13.002;2023-05-10T12:37:42;21.20;92.80
15072;DHT22;7635;56.696;13.002;2023-05-10T12:40:10;21.40;92.20
15072;DHT22;7635;56.696;13.002;2023-05-10T12:42:38;21.30;92.40
15072;DHT22;7635;56.696;13.002;2023-05-10T12:45:06;21.00;92.00
15072;DHT22;7635;56.696;13.002;2023-05-10T12:47:34;21.10;93.30
15072;DHT22;7635;56.696;13.002;2023-05-10T12:50:02;21.00;92.40
15072;DHT22;7635;56.696;13.002;2023-05-10T12:52:29;21.00;93.10
15072;DHT22;7635;56.696;13.002;2023-05-10T12:54:57;20.80;92.30
15072;DHT22;7635;56.696;13.002;2023-05-10T12:57:23;20.80;92.20
15072;DHT22;7635;56.696;13.002;2023-05-10T12:59:51;20.80;92.70
15072;DHT22;7635;56.696;13.002;2023-05-10T13:02:18;20.70;92.90
15072;DHT22;7635;56.696;13.002;2023-05-10T13:04:46;20.60;93.00
15072;DHT22;7635;56.696;13.002;2023-05-10T13:07:13;20.60;92.60
15072;DHT22;7635;56.696;13.002;2023-05-10T13:09:40;20.50;92.50
15072;DHT22;7635;56.696;13.002;2023-05-10T13:12:06;20.20;92.90
15072;DHT22;7635;56.696;13.002;2023-05-10T13:14:33;20.20;93.00
15072;DHT22;7635;56.696;13.002;2023-05-10T13:17:01;20.20;92.90
15072;DHT22;7635;56.696;13.002;2023-05-10T13:19:28;20.20;92.70
15072;DHT22;7635;56.696;13.002;2023-05-10T13:21:55;20.20;92.60
15072;DHT22;7635;56.696;13.002;2023-05-10T13:24:21;20.20;93.40
15072;DHT22;7635;56.696;13.002;2023-05-10T13:26:48;20.10;93.20
15072;DHT22;7635;56.696;13.002;2023-05-10T13:29:15;20.10;93.10
15072;DHT22;7635;56.696;13.002;2023-05-10T13:31:43;20.10;92.90
15072;DHT22;7635;56.696;13.002;2023-05-10T13:34:11;20.10;92.70
15072;DHT22;7635;56.696;13.002;2023-05-10T13:36:38;20.10;93.30
15072;DHT22;7635;56.696;13.002;2023-05-10T13:39:04;20.00;93.30
15072;DHT22;7635;56.696;13.002;2023-05-10T13:41:31;20.10;93.40
15072;DHT22;7635;56.696;13.002;2023-05-10T13:43:58;20.10;93.10
15072;DHT22;7635;56.696;13.002;2023-05-10T13:46:25;20.00;93.00
15072;DHT22;7635;56.696;13.002;2023-05-10T13:48:52;19.90;92.80
15072;DHT22;7635;56.696;13.002;2023-05-10T13:51:20;19.90;93.40
15072;DHT22;7635;56.696;13.002;2023-05-10T13:53:46;19.80;93.00
15072;DHT22;7635;56.696;13.002;2023-05-10T13:56:13;19.80;93.20
15072;DHT22;7635;56.696;13.002;2023-05-10T13:58:40;19.70;93.60
15072;DHT22;7635;56.696;13.002;2023-05-10T14:01:07;19.60;93.70
15072;DHT22;7635;56.696;13.002;2023-05-10T14:03:33;19.50;93.40
15072;DHT22;7635;56.696;13.002;2023-05-10T14:06:01;19.60;93.40
15072;DHT22;7635;56.696;13.002;2023-05-10T14:08:29;19.60;94.20
15072;DHT22;7635;56.696;13.002;2023-05-10T14:10:55;19.70;93.50
15072;DHT22;7635;56.696;13.002;2023-05-10T14:13:23;19.60;93.70
15072;DHT22;7635;56.696;13.002;2023-05-10T14:15:51;19.60;93.30
15072;DHT22;7635;56.696;13.002;2023-05-10T14:18:18;19.50;93.50
15072;DHT22;7635;56.696;13.002;2023-05-10T14:20:45;19.40;93.70
15072;DHT22;7635;56.696;13.002;2023-05-10T14:23:12;19.30;93.70
15072;DHT22;7635;56.696;13.002;2023-05-10T14:25:40;19.30;93.70
15072;DHT22;7635;56.696;13.002;2023-05-10T14:28:07;19.20;93.70
15072;DHT22;7635;56.696;13.002;2023-05-10T14:30:34;19.20;94.30
15072;DHT22;7635;56.696;13.002;2023-05-10T14:33:01;19.20;93.70
15072;DHT22;7635;56.696;13.002;2023-05-10T14:35:28;19.20;94.00
15072;DHT22;7635;56.696;13.002;2023-05-10T14:37:56;19.10;94.40
15072;DHT22;7635;56.696;13.002;2023-05-10T14:40:23;19.10;93.80
15072;DHT22;7635;56.696;13.002;2023-05-10T14:42:51;19.10;94.00
15072;DHT22;7635;56.696;13.002;2023-05-10T14:45:19;19.00;94.10
15072;DHT22;7635;56.696;13.002;2023-05-10T14:47:46;19.00;94.40
15072;DHT22;7635;56.696;13.002;2023-05-10T14:50:13;19.00;94.10
15072;DHT22;7635;56.696;13.002;2023-05-10T14:52:40;19.00;94.30
15072;DHT22;7635;56.696;13.002;2023-05-10T14:55:08;19.10;94.70
15072;DHT22;7635;56.696;13.002;2023-05-10T14:57:35;19.10;94.40
15072;DHT22;7635;56.696;13.002;2023-05-10T15:00:03;19.00;94.00
15072;DHT22;7635;56.696;13.002;2023-05-10T15:02:30;19.00;94.50
15072;DHT22;7635;56.696;13.002;2023-05-10T15:04:57;19.00;94.40
15072;DHT22;7635;56.696;13.002;2023-05-10T15:07:24;19.00;94.00
15072;DHT22;7635;56.696;13.002;2023-05-10T15:09:51;19.00;94.60
15072;DHT22;7635;56.696;13.002;2023-05-10T15:12:18;19.00;94.70
15072;DHT22;7635;56.696;13.002;2023-05-10T15:14:44;19.00;94.00
15072;DHT22;7635;56.696;13.002;2023-05-10T15:17:12;19.00;94.00
15072;DHT22;7635;56.696;13.002;2023-05-10T15:19:39;18.90;93.90
15072;DHT22;7635;56.696;13.002;2023-05-10T15:22:06;18.90;93.80
15072;DHT22;7635;56.696;13.002;2023-05-10T15:24:32;18.90;94.10
15072;DHT22;7635;56.696;13.002;2023-05-10T15:26:59;18.90;94.70
15072;DHT22;7635;56.696;13.002;2023-05-10T15:29:26;18.90;94.20
15072;DHT22;7635;56.696;13.002;2023-05-10T15:31:53;18.90;93.70
15072;DHT22;7635;56.696;13.002;2023-05-10T15:34:21;18.90;94.00
15072;DHT22;7635;56.696;13.002;2023-05-10T15:36:47;18.90;94.00
15072;DHT22;7635;56.696;13.002;2023-05-10T15:39:14;18.80;94.20
15072;DHT22;7635;56.696;13.002;2023-05-10T15:41:41;18.80;94.50